Time;durP1;ratioP1;P1;durP2;ratioP2;P2;SDS_P1;SDS_P2;PMS_P1;PMS_P2;Temp;Humidity;BMP_temperature;BMP_pressure;BME280_temperature;BME280_humidity;BME280_pressure;Samples;Min_cycle;Max_cycle;Signal;HPM_P1;HPM_P2
2022/11/14 00:00:10;;;;;;;31.10;17.92;;;;;;;8.23;92.26;101875.12;3333869;83;21105;-76
2022/11/14 00:05:23;;;;;;;29.05;18.35;;;;;;;8.22;92.33;101869.45;3325791;83;20977;-75
2022/11/14 00:10:33;;;;;;;27.82;17.32;;;;;;;8.22;92.49;101866.85;3444801;80;20986;-76
2022/11/14 00:15:44;;;;;;;32.75;19.32;;;;;;;8.20;92.57;101858.13;3467909;80;20955;-76
2022/11/14 00:20:54;;;;;;;36.63;19.25;;;;;;;8.23;92.60;101871.23;3414812;80;21222;-76
2022/11/14 00:26:06;;;;;;;30.05;17.85;;;;;;;8.27;92.62;101869.66;3474021;80;21543;-76
2022/11/14 00:31:16;;;;;;;31.20;18.27;;;;;;;8.27;92.54;101867.95;3466971;81;21511;-76
2022/11/14 00:36:25;;;;;;;38.83;18.48;;;;;;;8.24;92.42;101867.80;3426522;80;21057;-76
2022/11/14 00:41:35;;;;;;;39.40;20.45;;;;;;;8.24;92.51;101867.80;3445155;80;20985;-76
2022/11/14 00:46:45;;;;;;;37.00;20.37;;;;;;;8.24;92.57;101860.03;3468066;80;21049;-75
2022/11/14 00:51:54;;;;;;;36.60;19.15;;;;;;;8.23;92.62;101863.45;3443049;80;20954;-75
2022/11/14 00:57:06;;;;;;;42.38;20.85;;;;;;;8.24;92.62;101859.16;3412943;81;20987;-76
2022/11/14 01:02:32;;;;;;;38.98;19.50;;;;;;;8.23;92.68;101842.73;3459216;80;21023;-77
2022/11/14 01:07:38;;;;;;;41.28;19.23;;;;;;;8.21;92.68;101840.48;3463344;80;21995;-77
2022/11/14 01:12:54;;;;;;;41.18;20.12;;;;;;;8.21;92.69;101839.19;3492860;80;21159;-75
2022/11/14 01:18:05;;;;;;;40.00;20.30;;;;;;;8.23;92.86;101837.55;3460184;80;20979;-75
2022/11/14 01:23:16;;;;;;;38.88;20.68;;;;;;;8.24;92.82;101831.53;3486473;80;21461;-75
2022/11/14 01:28:28;;;;;;;37.73;19.17;;;;;;;8.23;92.77;101827.19;3452204;80;21489;-75
2022/11/14 01:33:39;;;;;;;33.80;20.37;;;;;;;8.23;92.79;101816.82;3392436;82;21474;-75
2022/11/14 01:38:55;;;;;;;27.48;18.45;;;;;;;8.21;92.73;101805.09;3405741;82;20991;-75
2022/11/14 01:44:16;;;;;;;30.65;18.42;;;;;;;8.22;92.81;101807.27;3395347;82;21498;-75
2022/11/14 01:49:40;;;;;;;;;;;;;;;;;;;;;
2022/11/14 01:54:53;;;;;;;28.73;17.67;;;;;;;8.22;92.76;101802.08;3386091;82;21019;-75
2022/11/14 02:00:05;;;;;;;26.27;16.93;;;;;;;8.21;92.75;101797.73;3379566;82;21489;-75
2022/11/14 02:05:17;;;;;;;26.37;15.90;;;;;;;8.19;92.61;101792.87;3398564;82;21508;-75
2022/11/14 02:10:28;;;;;;;27.15;16.80;;;;;;;8.17;92.69;101799.31;3405493;82;20987;-76
2022/11/14 02:15:40;;;;;;;31.25;17.70;;;;;;;8.13;92.82;101787.02;3384612;82;20999;-75
2022/11/14 02:20:54;;;;;;;29.00;17.23;;;;;;;8.17;92.80;101786.73;3453041;80;20932;-75
2022/11/14 02:26:03;;;;;;;27.80;16.50;;;;;;;8.18;92.81;101784.22;3460514;80;20959;-75
2022/11/14 02:31:13;;;;;;;28.32;16.45;;;;;;;8.18;92.80;101780.75;3453366;80;21132;-75
2022/11/14 02:36:25;;;;;;;27.45;16.45;;;;;;;8.17;92.74;101775.08;3461877;80;21018;-76
2022/11/14 02:41:34;;;;;;;27.27;16.50;;;;;;;8.17;92.84;101769.52;3444551;80;20971;-76
2022/11/14 02:46:45;;;;;;;25.50;15.48;;;;;;;8.15;92.79;101771.55;3368268;82;20967;-76
2022/11/14 02:51:55;;;;;;;28.55;16.52;;;;;;;8.14;92.88;101769.79;3405987;82;21680;-76
2022/11/14 02:57:04;;;;;;;26.55;16.82;;;;;;;8.14;92.66;101764.61;3383320;82;21517;-76
2022/11/14 03:02:14;;;;;;;31.45;17.23;;;;;;;8.11;92.61;101759.28;3365684;82;21625;-76
2022/11/14 03:07:23;;;;;;;26.82;17.62;;;;;;;8.10;92.79;101761.00;3393147;82;21031;-76
2022/11/14 03:12:33;;;;;;;29.82;19.02;;;;;;;8.10;92.69;101757.50;3406740;82;21533;-76
2022/11/14 03:17:43;;;;;;;27.82;17.55;;;;;;;8.08;92.66;101751.38;3336024;83;20975;-76
2022/11/14 03:22:53;;;;;;;28.92;18.27;;;;;;;8.04;92.80;101749.48;3405808;81;21504;-76
2022/11/14 03:28:04;;;;;;;38.98;22.80;;;;;;;8.04;92.80;101749.48;3356309;83;21035;-76
2022/11/14 03:33:15;;;;;;;33.88;19.75;;;;;;;8.05;92.59;101743.46;3399438;82;20955;-76
2022/11/14 03:38:25;;;;;;;33.53;21.20;;;;;;;8.04;92.70;101748.18;3398653;82;21023;-76
2022/11/14 03:43:35;;;;;;;32.23;21.52;;;;;;;8.05;92.67;101744.37;3378855;80;21488;-75
2022/11/14 03:48:44;;;;;;;36.80;22.42;;;;;;;8.07;92.76;101741.85;3404013;82;21521;-76
2022/11/14 03:53:53;;;;;;;35.40;22.73;;;;;;;8.08;92.78;101743.60;3444613;80;21003;-76
2022/11/14 03:59:03;;;;;;;37.88;24.95;;;;;;;8.05;92.66;101735.69;3447171;82;20950;-76
2022/11/14 04:04:13;;;;;;;36.90;21.68;;;;;;;8.03;92.53;101735.66;3365581;82;21555;-76
2022/11/14 04:09:22;;;;;;;41.23;25.75;;;;;;;8.03;92.53;101735.66;3432917;80;21327;-76
2022/11/14 04:14:32;;;;;;;40.28;24.90;;;;;;;8.04;92.81;101726.16;3450728;80;20990;-76
2022/11/14 04:19:41;;;;;;;41.35;26.02;;;;;;;8.04;92.77;101723.58;3440918;80;20967;-76
2022/11/14 04:24:51;;;;;;;37.05;24.30;;;;;;;8.04;92.56;101719.69;3487624;80;20982;-76
2022/11/14 04:30:01;;;;;;;36.40;24.47;;;;;;;8.00;92.67;101719.55;3483418;80;21049;-76
2022/11/14 04:35:11;;;;;;;33.60;20.95;;;;;;;7.99;92.69;101724.27;3407522;81;20963;-76
2022/11/14 04:40:20;;;;;;;30.45;21.00;;;;;;;7.99;92.71;101719.09;3458482;80;21035;-76
2022/11/14 04:45:29;;;;;;;29.90;18.70;;;;;;;7.94;92.57;101712.83;3434957;82;21071;-76
2022/11/14 04:50:39;;;;;;;29.27;18.48;;;;;;;7.95;92.89;101710.69;3372437;82;21023;-76
2022/11/14 04:55:48;;;;;;;25.00;16.67;;;;;;;7.93;92.92;101705.86;3376273;82;21015;-77
2022/11/14 05:00:58;;;;;;;24.67;16.15;;;;;;;7.96;93.08;101712.47;3400275;82;21006;-76
2022/11/14 05:06:08;;;;;;;22.15;16.30;;;;;;;7.96;92.86;101700.83;3384793;82;21011;-76
2022/11/14 05:11:20;;;;;;;22.17;15.50;;;;;;;7.95;92.78;101692.98;3365688;82;21266;-76
2022/11/14 05:16:29;;;;;;;21.02;13.45;;;;;;;7.94;92.89;101705.05;3413595;81;21062;-76
2022/11/14 05:21:39;;;;;;;22.05;15.50;;;;;;;7.88;92.64;101694.41;3353202;82;20995;-76
2022/11/14 05:26:49;;;;;;;22.48;15.00;;;;;;;7.88;92.64;101694.41;3365446;82;20980;-76
2022/11/14 05:32:00;;;;;;;21.68;14.10;;;;;;;7.89;93.02;101693.61;3399358;82;20994;-76
2022/11/14 05:37:20;;;;;;;21.33;14.65;;;;;;;7.90;93.08;101693.19;3393516;82;21696;-76
2022/11/14 05:42:33;;;;;;;20.80;14.50;;;;;;;7.91;93.04;101689.80;3377106;82;21281;-77
2022/11/14 05:47:55;;;;;;;19.98;14.00;;;;;;;7.92;92.95;101697.63;3379701;82;20972;-76
2022/11/14 05:53:05;;;;;;;21.07;13.38;;;;;;;7.92;92.95;101697.63;3391798;82;21015;-76
2022/11/14 05:58:17;;;;;;;20.52;13.85;;;;;;;7.90;93.08;101688.88;3350469;82;20979;-77
2022/11/14 06:03:36;;;;;;;22.60;14.35;;;;;;;7.95;92.91;101696.45;3380042;82;21012;-76
2022/11/14 06:08:56;;;;;;;20.35;12.45;;;;;;;7.91;93.06;101689.38;3409643;82;21000;-76
2022/11/14 06:14:12;;;;;;;;;;;;;;;;;;;;;
2022/11/14 06:19:20;;;;;;;19.02;12.80;;;;;;;7.95;92.96;101705.52;3407346;82;20971;-76
2022/11/14 06:24:33;;;;;;;20.70;12.75;;;;;;;7.88;92.92;101694.41;3396294;82;21529;-76
2022/11/14 06:29:53;;;;;;;19.15;11.75;;;;;;;7.88;92.92;101694.41;3374119;82;20948;-76
2022/11/14 06:35:02;;;;;;;19.98;10.53;;;;;;;7.95;92.99;101701.63;3395005;82;20987;-76
2022/11/14 06:40:20;;;;;;;17.48;11.38;;;;;;;7.92;92.78;101717.05;3380956;82;22125;-77
2022/11/14 06:45:24;;;;;;;18.00;9.70;;;;;;;7.91;92.77;101719.16;3448009;80;21269;-76
2022/11/14 06:50:39;;;;;;;12.88;8.88;;;;;;;7.92;92.86;101717.05;3443483;81;21520;-76
2022/11/14 06:55:58;;;;;;;11.95;8.80;;;;;;;7.93;92.54;101721.39;3406087;82;20967;-76
2022/11/14 07:01:21;;;;;;;12.70;8.83;;;;;;;7.91;92.65;101716.98;3394508;82;21042;-76
2022/11/14 07:06:30;;;;;;;12.07;8.48;;;;;;;7.92;92.66;101719.64;3453427;80;20986;-76
2022/11/14 07:11:49;;;;;;;10.58;7.97;;;;;;;7.95;92.67;101708.52;3469090;80;20970;-76
2022/11/14 07:16:57;;;;;;;14.25;8.20;;;;;;;7.91;92.24;101712.68;3451141;80;21541;-76
2022/11/14 07:22:06;;;;;;;10.98;7.97;;;;;;;7.90;92.43;101721.25;3452320;80;21532;-76
2022/11/14 07:27:16;;;;;;;11.33;8.13;;;;;;;7.91;92.45;101704.03;3474551;80;20974;-76
2022/11/14 07:32:26;;;;;;;10.95;7.42;;;;;;;7.91;92.27;101704.91;3460293;81;21580;-77
2022/11/14 07:37:38;;;;;;;13.50;8.75;;;;;;;7.91;92.27;101704.91;3420319;80;21220;-77
2022/11/14 07:42:55;;;;;;;12.03;8.15;;;;;;;7.92;92.25;101701.52;3403180;80;21715;-76
2022/11/14 07:48:01;;;;;;;9.53;7.47;;;;;;;7.94;92.51;101702.47;3342983;82;21026;-76
2022/11/14 07:58:45;;;;;;;10.85;7.97;;;;;;;7.96;92.13;101703.41;3332649;83;21713;-77
2022/11/14 08:04:10;;;;;;;;;;;;;;;;;;;;;
2022/11/14 08:09:16;;;;;;;10.38;6.92;;;;;;;7.99;91.89;101699.67;3359861;83;21355;-77
2022/11/14 08:14:30;;;;;;;9.83;6.28;;;;;;;8.11;91.55;101697.12;3312725;84;21035;-77
2022/11/14 08:20:01;;;;;;;10.00;7.03;;;;;;;8.11;91.55;101697.12;3233415;85;21002;-77
2022/11/14 08:25:04;;;;;;;9.15;7.67;;;;;;;8.08;91.47;101685.32;3227266;85;21174;-76
2022/11/14 08:30:20;;;;;;;7.53;5.62;;;;;;;8.18;91.21;101683.61;3278601;84;21010;-78
2022/11/14 08:35:47;;;;;;;7.42;5.97;;;;;;;8.12;90.87;101675.56;3304795;84;21600;-77
2022/11/14 08:41:10;;;;;;;9.20;6.40;;;;;;;8.12;91.11;101679.06;3322507;84;21020;-78
2022/11/14 08:46:38;;;;;;;10.32;7.60;;;;;;;8.11;91.43;101663.44;3379305;82;21007;-77
2022/11/14 08:57:16;;;;;;;6.95;5.50;;;;;;;8.24;91.30;101673.48;3383847;82;21597;-79
2022/11/14 09:02:40;;;;;;;;;;;;;;;;;;;;;
2022/11/14 09:08:00;;;;;;;6.00;4.78;;;;;;;8.27;90.94;101671.03;3413963;82;21332;-77
2022/11/14 09:13:16;;;;;;;6.35;3.72;;;;;;;8.26;91.13;101660.18;3400312;82;21680;-77
2022/11/14 09:18:25;;;;;;;5.35;3.67;;;;;;;8.19;91.04;101634.84;3405461;82;20987;-77
2022/11/14 09:23:38;;;;;;;4.37;3.87;;;;;;;8.19;91.04;101634.84;3370540;82;20994;-76
2022/11/14 09:29:04;;;;;;;5.58;3.67;;;;;;;8.27;91.20;101639.94;3385849;82;20987;-77
2022/11/14 09:34:15;;;;;;;4.15;3.35;;;;;;;8.31;91.14;101631.46;3409860;82;21521;-77
2022/11/14 09:39:25;;;;;;;4.47;3.25;;;;;;;8.45;91.04;101623.41;3413633;82;20983;-76
2022/11/14 09:44:56;;;;;;;3.83;2.98;;;;;;;8.49;90.37;101622.70;3412908;82;20952;-77
2022/11/14 09:50:32;;;;;;;4.25;3.83;;;;;;;8.47;90.30;101613.98;3414015;82;20979;-76
2022/11/14 09:55:41;;;;;;;5.05;3.00;;;;;;;8.55;90.32;101613.89;3409426;82;21532;-76
2022/11/14 10:00:59;;;;;;;4.62;2.95;;;;;;;8.73;90.14;101610.71;3391939;82;21098;-77
2022/11/14 10:06:27;;;;;;;5.72;3.70;;;;;;;8.94;90.09;101608.45;3316286;84;21044;-76
2022/11/14 10:11:45;;;;;;;5.58;4.15;;;;;;;9.05;89.66;101604.58;3266648;85;21018;-76
2022/11/14 10:17:18;;;;;;;8.40;5.40;;;;;;;9.07;89.03;101597.73;3280214;85;21525;-75
2022/11/14 10:22:57;;;;;;;7.35;5.72;;;;;;;9.04;88.10;101595.01;3250774;85;21521;-75
2022/11/14 10:28:29;;;;;;;8.65;6.65;;;;;;;9.03;88.06;101596.25;3245269;85;21020;-76
2022/11/14 10:34:12;;;;;;;10.23;6.80;;;;;;;9.02;87.75;101597.09;3279938;86;21553;-74
2022/11/14 10:39:32;;;;;;;10.95;7.97;;;;;;;8.93;88.33;101593.31;3258868;85;21454;-73
2022/11/14 10:44:53;;;;;;;10.68;8.43;;;;;;;8.96;88.57;101582.19;3273421;85;21226;-76
2022/11/14 10:50:37;;;;;;;12.47;8.13;;;;;;;8.85;88.21;101584.77;3217914;87;21046;-73
2022/11/14 10:55:50;;;;;;;11.43;7.85;;;;;;;8.76;88.49;101577.13;3212715;87;21112;-74
2022/11/14 11:01:36;;;;;;;14.40;9.53;;;;;;;8.72;88.09;101564.85;3269714;86;21572;-74
2022/11/14 11:06:51;;;;;;;14.28;10.10;;;;;;;8.63;88.34;101558.45;3252103;85;21088;-71
2022/11/14 11:12:04;;;;;;;15.68;10.98;;;;;;;8.54;88.07;101556.38;3240243;86;21008;-74
2022/11/14 11:17:19;;;;;;;14.28;10.55;;;;;;;8.45;88.60;101550.84;3219612;86;21085;-75
2022/11/14 11:22:38;;;;;;;13.70;10.00;;;;;;;8.42;88.54;101548.09;3241290;85;22205;-72
2022/11/14 11:28:14;;;;;;;14.00;9.68;;;;;;;8.29;88.53;101545.02;3347320;83;20964;-72
2022/11/14 11:33:28;;;;;;;9.95;7.12;;;;;;;8.24;88.87;101533.58;3364493;84;21312;-74
2022/11/14 11:38:37;;;;;;;8.88;6.87;;;;;;;8.21;88.35;101530.89;3380423;83;21230;-72
2022/11/14 11:44:00;;;;;;;9.25;6.28;;;;;;;8.13;88.67;101503.37;3324796;82;20943;-72
2022/11/14 11:49:17;;;;;;;8.38;6.20;;;;;;;8.20;88.59;101497.60;3341099;83;21026;-74
2022/11/14 11:54:32;;;;;;;8.70;5.78;;;;;;;8.31;88.91;101491.97;3352236;83;21003;-73
2022/11/14 11:59:50;;;;;;;8.23;5.15;;;;;;;8.35;88.01;101492.16;3359386;83;21147;-73
2022/11/14 12:05:00;;;;;;;8.75;6.40;;;;;;;8.30;87.94;101489.80;3341375;83;21541;-74
2022/11/14 12:10:20;;;;;;;8.75;7.00;;;;;;;8.30;88.28;101483.70;3371210;83;21196;-74
2022/11/14 12:15:57;;;;;;;9.25;6.80;;;;;;;8.31;88.02;101485.06;3345184;83;20987;-73
2022/11/14 12:21:31;;;;;;;9.88;6.95;;;;;;;8.25;87.83;101478.37;3356278;83;20987;-74
2022/11/14 12:27:23;;;;;;;10.23;7.70;;;;;;;8.21;87.86;101477.36;3369301;83;21011;-73
2022/11/14 12:32:44;;;;;;;9.43;7.25;;;;;;;8.24;88.26;101473.13;3383182;83;20966;-74
2022/11/14 12:37:57;;;;;;;11.60;9.00;;;;;;;8.18;88.29;101474.65;3361198;83;21018;-73
2022/11/14 12:43:37;;;;;;;13.80;9.88;;;;;;;8.18;88.29;101474.65;3342931;83;21007;-73
2022/11/14 12:48:47;;;;;;;13.35;9.60;;;;;;;8.19;87.76;101479.41;3312531;84;21003;-74
2022/11/14 12:53:57;;;;;;;14.93;9.50;;;;;;;8.11;88.09;101467.88;3263697;86;21407;-75
2022/11/14 12:59:37;;;;;;;20.00;12.33;;;;;;;8.12;88.13;101468.34;3299246;85;20971;-73
2022/11/14 13:05:09;;;;;;;22.22;14.63;;;;;;;8.06;88.17;101465.52;3299230;85;21063;-73
2022/11/14 13:10:29;;;;;;;28.35;17.62;;;;;;;7.96;88.17;101472.94;3338212;84;20991;-74
2022/11/14 13:27:06;;;;;;;30.50;17.63;;;;;;;7.83;88.31;101471.95;3331971;85;21039;-73
2022/11/14 13:32:44;;;;;;;28.47;18.23;;;;;;;7.77;88.18;101469.13;3290006;84;21114;-74
2022/11/14 13:38:19;;;;;;;33.35;19.92;;;;;;;7.70;88.14;101465.83;3324116;84;20965;-73
2022/11/14 13:44:10;;;;;;;31.30;18.52;;;;;;;7.61;88.30;101461.16;3315439;84;21497;-75
2022/11/14 13:49:40;;;;;;;23.83;15.20;;;;;;;7.62;88.62;101456.05;3310025;85;21015;-75
2022/11/14 13:54:51;;;;;;;27.40;16.42;;;;;;;7.64;88.68;101462.16;3323689;84;20979;-75
2022/11/14 14:00:27;;;;;;;32.20;18.65;;;;;;;7.60;88.56;101462.87;3275949;84;21083;-77
2022/11/14 14:05:51;;;;;;;31.75;19.27;;;;;;;7.58;88.41;101451.95;3310747;84;21059;-77
2022/11/14 14:11:45;;;;;;;32.98;18.87;;;;;;;7.53;88.17;101456.97;3260741;85;21024;-76
2022/11/14 14:17:21;;;;;;;34.27;20.35;;;;;;;7.49;88.55;101440.81;3283187;85;21549;-76
2022/11/14 14:23:00;;;;;;;32.13;20.15;;;;;;;7.45;88.49;101445.41;3269268;86;21037;-75
2022/11/14 14:28:37;;;;;;;34.38;20.15;;;;;;;7.49;88.79;101440.81;3318630;85;21186;-74
2022/11/14 14:33:50;;;;;;;38.17;20.68;;;;;;;7.41;88.42;101413.77;3283032;85;21554;-75
2022/11/14 14:39:24;;;;;;;34.58;20.60;;;;;;;7.41;88.54;101416.35;3206725;86;21019;-75
2022/11/14 14:44:39;;;;;;;35.03;21.68;;;;;;;7.34;88.04;101406.57;3232086;85;20984;-75
2022/11/14 14:49:49;;;;;;;30.12;19.90;;;;;;;7.31;88.34;101407.31;3348166;84;20924;-74
2022/11/14 14:55:02;;;;;;;34.63;20.20;;;;;;;7.24;87.92;101403.61;3309455;84;21042;-74
2022/11/14 15:00:21;;;;;;;30.60;20.60;;;;;;;7.24;87.92;101403.61;3302004;85;20979;-74
2022/11/14 15:05:31;;;;;;;24.37;18.80;;;;;;;7.26;88.32;101398.47;3319747;84;21007;-73
2022/11/14 15:10:41;;;;;;;27.17;18.20;;;;;;;7.27;88.24;101402.84;3326927;85;21004;-74
2022/11/14 15:15:52;;;;;;;26.17;17.57;;;;;;;7.21;87.87;101399.59;3310207;85;20982;-74
2022/11/14 15:21:23;;;;;;;25.50;18.00;;;;;;;7.19;87.88;101404.22;3316660;85;20995;-73
2022/11/14 15:26:34;;;;;;;22.90;16.02;;;;;;;7.18;87.99;101398.17;3316443;84;20987;-73
2022/11/14 15:31:52;;;;;;;23.25;17.73;;;;;;;7.16;87.96;101386.88;3337421;85;21024;-73
2022/11/14 15:37:19;;;;;;;24.80;17.20;;;;;;;7.16;87.89;101386.88;3272276;84;21008;-73
2022/11/14 15:42:29;;;;;;;21.33;14.80;;;;;;;7.13;87.76;101378.98;3299362;85;20990;-74
2022/11/14 15:47:39;;;;;;;23.67;18.12;;;;;;;7.11;87.79;101370.28;3307138;85;20956;-73
2022/11/14 15:53:04;;;;;;;21.65;15.72;;;;;;;7.13;88.06;101367.34;3305033;84;20965;-73
2022/11/14 15:58:13;;;;;;;25.10;16.50;;;;;;;7.13;87.74;101366.05;3341323;83;21075;-72
2022/11/14 16:03:23;;;;;;;23.30;16.67;;;;;;;7.07;87.73;101350.30;3311923;84;21321;-73
2022/11/14 16:08:32;;;;;;;22.15;15.15;;;;;;;7.09;87.56;101332.27;3319159;84;21247;-73
2022/11/14 16:13:42;;;;;;;23.25;16.07;;;;;;;7.09;87.77;101338.31;3313636;85;21020;-72
2022/11/14 16:18:52;;;;;;;20.65;15.10;;;;;;;7.09;87.77;101338.31;3291553;85;20995;-72
2022/11/14 16:24:01;;;;;;;23.10;16.37;;;;;;;7.06;87.89;101322.66;3290246;85;21011;-73
2022/11/14 16:29:11;;;;;;;20.88;15.75;;;;;;;7.09;87.69;101327.09;3300938;85;20955;-73
2022/11/14 16:34:25;;;;;;;20.08;14.38;;;;;;;7.11;87.88;101320.28;3315068;84;21030;-73
2022/11/14 16:39:37;;;;;;;21.90;15.48;;;;;;;7.09;87.30;101316.33;3317412;85;20998;-73
2022/11/14 16:44:47;;;;;;;21.52;14.78;;;;;;;7.04;87.24;101321.72;3296216;85;34193;-73
2022/11/14 16:49:57;;;;;;;18.73;14.53;;;;;;;7.03;87.76;101302.75;3269680;83;20963;-74
2022/11/14 16:55:10;;;;;;;20.12;14.20;;;;;;;7.03;87.76;101302.75;3319461;83;21015;-74
2022/11/14 17:00:32;;;;;;;17.55;14.23;;;;;;;7.00;87.21;101312.08;3326611;84;20994;-74
2022/11/14 17:05:44;;;;;;;17.62;13.10;;;;;;;6.93;86.79;101293.27;3463417;80;20934;-75
2022/11/14 17:10:54;;;;;;;17.20;12.75;;;;;;;6.93;86.79;101293.27;3404558;82;21287;-75
2022/11/14 17:16:05;;;;;;;16.62;12.35;;;;;;;6.96;86.99;101307.62;3414615;81;21001;-75
2022/11/14 17:21:15;;;;;;;15.72;12.33;;;;;;;6.92;86.88;101290.19;3420931;82;21034;-74
2022/11/14 17:26:25;;;;;;;18.42;13.78;;;;;;;6.91;86.59;101298.37;3425609;82;21445;-74
2022/11/14 17:31:34;;;;;;;15.58;12.98;;;;;;;6.91;86.59;101298.37;3413072;82;21038;-73
2022/11/14 17:36:44;;;;;;;17.32;13.38;;;;;;;6.92;86.55;101291.09;3415536;82;21026;-73
2022/11/14 17:41:53;;;;;;;19.70;15.18;;;;;;;6.91;86.44;101288.45;3410430;82;20952;-75
2022/11/14 17:47:03;;;;;;;18.27;13.88;;;;;;;6.91;86.41;101280.27;3420277;82;21552;-73
2022/11/14 17:52:13;;;;;;;18.48;13.22;;;;;;;6.91;86.30;101284.15;3426400;82;20969;-73
2022/11/14 17:57:22;;;;;;;16.05;12.45;;;;;;;6.90;86.24;101281.50;3431617;81;21296;-72
2022/11/14 18:02:36;;;;;;;18.07;13.75;;;;;;;6.88;86.19;101285.30;3422072;81;21556;-76
2022/11/14 18:07:44;;;;;;;15.98;11.83;;;;;;;6.92;86.46;101278.17;3403126;81;21345;-73
2022/11/14 18:12:54;;;;;;;14.75;11.95;;;;;;;6.86;85.58;101271.02;3390340;81;20951;-73
2022/11/14 18:18:04;;;;;;;14.40;11.22;;;;;;;6.78;85.78;101262.09;3435300;81;21034;-73
2022/11/14 18:23:14;;;;;;;14.68;11.03;;;;;;;6.79;85.71;101270.30;3460740;81;21022;-73
2022/11/14 18:28:36;;;;;;;15.00;11.65;;;;;;;6.76;85.68;101257.66;3418091;81;21600;-75
2022/11/14 18:33:46;;;;;;;14.40;10.90;;;;;;;6.76;85.51;101257.66;3432261;81;21536;-75
2022/11/14 18:38:56;;;;;;;12.88;9.88;;;;;;;6.71;85.51;101260.45;3461756;81;21620;-74
2022/11/14 18:44:06;;;;;;;15.53;12.00;;;;;;;6.69;85.43;101260.42;3446076;81;21520;-74
2022/11/14 18:49:16;;;;;;;14.80;12.05;;;;;;;6.67;85.34;101251.31;3438123;82;21489;-75
2022/11/14 18:54:25;;;;;;;16.05;11.45;;;;;;;6.66;85.31;101239.61;3415780;82;20990;-74
2022/11/14 18:59:35;;;;;;;15.38;12.30;;;;;;;6.62;85.36;101236.44;3434968;81;21027;-74
2022/11/14 19:04:44;;;;;;;19.67;11.83;;;;;;;6.62;85.36;101236.44;3395678;81;21006;-74
2022/11/14 19:09:54;;;;;;;20.90;17.02;;;;;;;6.59;85.01;101223.39;3451984;80;20971;-74
2022/11/14 19:15:04;;;;;;;28.83;22.40;;;;;;;6.59;85.01;101223.39;3490501;80;21496;-74
2022/11/14 19:20:14;;;;;;;15.63;12.98;;;;;;;6.63;85.25;101223.56;3458068;80;21006;-74
2022/11/14 19:25:24;;;;;;;17.25;12.68;;;;;;;6.63;85.14;101218.81;3459546;79;20975;-75
2022/11/14 19:30:33;;;;;;;15.85;13.32;;;;;;;6.64;85.27;101214.13;3458468;80;20920;-73
2022/11/14 19:35:43;;;;;;;15.28;11.88;;;;;;;6.61;85.04;101221.74;3447427;80;22036;-73
2022/11/14 19:40:53;;;;;;;17.62;13.45;;;;;;;6.54;85.00;101193.89;3499716;79;21496;-74
2022/11/14 19:46:04;;;;;;;18.02;13.18;;;;;;;6.54;85.00;101193.89;3498069;79;20939;-73
2022/11/14 19:51:17;;;;;;;18.65;13.80;;;;;;;6.56;84.61;101204.75;3482932;80;20958;-73
2022/11/14 19:56:27;;;;;;;18.52;14.23;;;;;;;6.56;84.61;101204.75;3504814;79;20962;-74
2022/11/14 20:01:37;;;;;;;17.17;13.05;;;;;;;6.52;84.80;101193.83;3476996;79;22076;-74
2022/11/14 20:06:47;;;;;;;17.48;12.35;;;;;;;6.51;84.92;101182.13;3477907;79;21056;-74
2022/11/14 20:11:56;;;;;;;17.55;13.30;;;;;;;6.49;84.63;101179.09;3506811;79;20986;-74
2022/11/14 20:17:06;;;;;;;17.98;13.50;;;;;;;6.46;85.01;101176.37;3477310;79;20990;-75
2022/11/14 20:22:17;;;;;;;15.43;12.47;;;;;;;6.42;84.85;101171.01;3452354;80;21461;-74
2022/11/14 20:27:26;;;;;;;17.75;13.83;;;;;;;6.42;84.77;101166.75;3486962;80;20994;-74
2022/11/14 20:32:36;;;;;;;20.30;12.58;;;;;;;6.42;84.77;101166.75;3482652;81;21006;-74
2022/11/14 20:37:46;;;;;;;19.12;13.88;;;;;;;6.45;84.96;101162.98;3459541;81;21029;-74
2022/11/14 20:42:56;;;;;;;21.82;14.73;;;;;;;6.44;84.82;101148.31;3489038;80;20961;-73
2022/11/14 20:48:06;;;;;;;17.55;14.05;;;;;;;6.42;84.62;101150.34;3486326;79;21258;-74
2022/11/14 20:53:16;;;;;;;17.50;12.93;;;;;;;6.43;84.97;101141.79;3457356;80;21314;-73
2022/11/14 20:58:27;;;;;;;17.95;13.18;;;;;;;6.40;84.71;101137.39;3436540;80;21010;-73
2022/11/14 21:03:37;;;;;;;18.35;13.38;;;;;;;6.35;84.49;101131.16;3480041;81;21033;-73
2022/11/14 21:08:47;;;;;;;19.67;13.93;;;;;;;6.36;84.99;101122.57;3457037;81;21001;-74
2022/11/14 21:14:00;;;;;;;18.42;14.07;;;;;;;6.34;84.84;101112.59;3467487;80;21014;-74
2022/11/14 21:19:15;;;;;;;17.95;13.55;;;;;;;6.36;84.98;101104.49;3466898;80;21454;-74
2022/11/14 21:24:25;;;;;;;16.40;12.75;;;;;;;6.37;85.15;101098.52;3467521;79;20954;-73
2022/11/14 21:29:34;;;;;;;17.57;13.90;;;;;;;6.40;85.22;101092.20;3436678;80;20982;-73
2022/11/14 21:34:44;;;;;;;17.30;12.15;;;;;;;6.32;84.79;101079.38;3457351;81;21061;-73
2022/11/14 21:39:54;;;;;;;19.23;13.85;;;;;;;6.30;84.59;101076.73;3488639;80;20991;-75
2022/11/14 21:45:05;;;;;;;19.90;14.50;;;;;;;6.30;84.59;101076.73;3432837;80;20962;-74
2022/11/14 21:50:15;;;;;;;18.32;13.50;;;;;;;6.32;85.20;101071.63;3488663;80;20997;-74
2022/11/14 21:56:24;;;;;;;20.05;13.18;;;;;;;6.29;84.99;101068.49;3497884;79;21017;-74
2022/11/14 22:07:05;;;;;;;16.75;12.85;;;;;;;6.27;85.15;101056.36;3459060;79;20990;-73
2022/11/14 22:12:15;;;;;;;16.65;12.90;;;;;;;6.26;85.20;101058.45;3434619;79;20993;-74
2022/11/14 22:17:28;;;;;;;18.30;13.93;;;;;;;6.27;85.20;101049.89;3493832;79;21207;-74
2022/11/14 22:22:37;;;;;;;18.12;13.20;;;;;;;6.27;85.28;101055.06;3506167;81;20939;-74
2022/11/14 22:27:46;;;;;;;17.23;13.25;;;;;;;6.29;85.39;101046.55;3457437;80;20994;-75
2022/11/14 22:32:59;;;;;;;16.97;12.88;;;;;;;6.30;85.29;101054.77;3479973;80;21024;-74
2022/11/14 22:38:08;;;;;;;18.65;13.62;;;;;;;6.28;85.20;101041.34;3470322;80;21000;-74
2022/11/14 22:43:21;;;;;;;20.65;15.53;;;;;;;6.26;85.22;101047.73;3476616;80;20994;-74
2022/11/14 22:48:33;;;;;;;19.70;14.75;;;;;;;6.25;85.56;101037.34;3448096;79;20927;-74
2022/11/14 22:53:49;;;;;;;17.62;12.68;;;;;;;6.26;85.44;101032.63;3489272;80;20970;-75
2022/11/14 22:58:59;;;;;;;18.70;14.55;;;;;;;6.26;85.58;101036.50;3403049;81;20982;-74
2022/11/14 23:10:33;;;;;;;18.15;14.63;;;;;;;6.26;85.61;101021.01;3222604;87;25166;-75
2022/11/14 23:15:46;;;;;;;18.25;13.90;;;;;;;6.25;85.71;101015.39;3110920;90;21043;-75
2022/11/14 23:21:41;;;;;;;;;;;;;;;;;;;;;
2022/11/14 23:26:52;;;;;;;19.75;14.50;;;;;;;6.24;85.80;101006.77;3094588;90;21093;-74
2022/11/14 23:32:19;;;;;;;23.70;18.00;;;;;;;6.26;85.94;101008.09;3089312;90;21716;-74
2022/11/14 23:37:23;;;;;;;23.18;16.42;;;;;;;6.29;86.15;101006.94;3086610;90;21075;-74
2022/11/14 23:42:54;;;;;;;25.88;19.10;;;;;;;6.31;86.14;101005.28;3105596;90;21069;-74
2022/11/14 23:47:56;;;;;;;24.18;17.55;;;;;;;6.31;85.98;101002.70;3104078;90;21158;-73
2022/11/14 23:53:06;;;;;;;21.17;16.50;;;;;;;6.31;86.10;100992.38;3102085;90;21055;-73
2022/11/14 23:58:15;;;;;;;23.60;17.87;;;;;;;6.32;86.11;100993.28;3072939;90;21049;-73
